• Join FlightAware (Why Join?)
  • Login
  • US Flag 
02:22AM EDT


 

Airport Tracker/Info


-or-


 

Live Flight TrackerFlight Track Log ✈ SWA2383 ✈ 20-Apr-2013 ✈ KSNA - KSJC

Flight Track Log - Related Links

Times and Time Zones

All times are in EDT time to prevent confusion due to time zone crossing. See the SWA2383 flight status page for this flight to view local times or setup timezone preferences in your user account.

Time Position Orientation Groundspeed Altitude Reporting Facility
EDT Latitude Longitude Course Direction KTS MPH feet Rate Location/Type
08:18PM 33.6536 -117.8825 195° South 141 162 1,500  Level Los Angeles Center
08:19PM 33.6133 -117.8956 195° South 149 171 3,100 1,560 Climbing Los Angeles Center
08:20PM 33.5497 -117.9214 199° South 210 242 4,800 2,400 Climbing Los Angeles Center
08:21PM 33.4856 -117.9728 214° Southwest 260 299 8,100 3,060 Climbing Los Angeles Center
08:22PM 33.4153 -118.0272 213° Southwest 288 331 11,200 3,000 Climbing Los Angeles Center
08:23PM 33.3417 -118.1078 222° Southwest 352 405 14,300 3,240 Climbing Los Angeles Center
08:24PM 33.3742 -118.2142 290° West 358 412 17,900 3,240 Climbing Los Angeles Center
08:25PM 33.4408 -118.3067 311° West 365 420 21,000 2,820 Climbing Los Angeles Center
08:26PM 33.5125 -118.4033 312° West 379 436 23,800 2,640 Climbing Los Angeles Center
08:27PM 33.5878 -118.5056 311° West 398 458 26,500 2,280 Climbing Los Angeles Center
08:28PM 33.6658 -118.6111 312° West 411 473 28,600 2,160 Climbing Los Angeles Center
08:29PM 33.7606 -118.7406 311° West 425 489 31,000 2,400 Climbing Los Angeles Center
08:30PM 33.8392 -118.8456 312° West 422 486 33,600 2,340 Climbing Los Angeles Center
08:31PM 33.9147 -118.9489 311° West 414 476 35,800 1,860 Climbing Los Angeles Center
08:32PM 33.9883 -119.0503 311° West 404 465 37,500 1,020 Climbing Los Angeles Center
08:33PM 34.0619 -119.1525 311° West 404 465 38,000 240 Climbing Los Angeles Center
08:34PM 34.1442 -119.2478 316° Northwest 407 468 38,000  Level Los Angeles Center
08:35PM 34.2364 -119.3292 324° Northwest 408 470 38,000  Level Los Angeles Center
08:36PM 34.3447 -119.4311 322° Northwest 412 474 38,000  Level Los Angeles Center
08:37PM 34.4336 -119.5158 322° Northwest 408 470 38,000  Level Los Angeles Center
08:38PM 34.5231 -119.5986 323° Northwest 407 468 38,000  Level Los Angeles Center
08:39PM 34.6114 -119.6822 322° Northwest 405 466 38,000  Level Los Angeles Center
08:41PM 34.6947 -119.7606 322° Northwest 405 466 38,000  Level Los Angeles Center
08:42PM 34.8011 -119.8622 322° Northwest 405 466 38,000  Level Los Angeles Center
08:43PM 34.8889 -119.9458 322° Northwest 403 464 38,000  Level Los Angeles Center
08:44PM 34.9772 -120.0303 322° Northwest 403 464 38,000  Level Los Angeles Center
08:45PM 35.0783 -120.1261 322° Northwest 402 463 38,000  Level Los Angeles Center
08:46PM 35.1664 -120.2117 322° Northwest 406 467 38,000  Level Los Angeles Center
08:47PM 35.2736 -120.3142 322° Northwest 409 471 38,000  Level Los Angeles Center
08:48PM 35.3811 -120.4186 322° Northwest 412 474 38,000 -120 Level Los Angeles Center
08:49PM 35.4656 -120.5053 320° Northwest 419 482 37,800 -660 Descending Oakland Center
08:50PM 35.5544 -120.5903 322° Northwest 407 468 36,800 -960 Descending Oakland Center
08:51PM 35.6450 -120.6786 322° Northwest 414 476 35,900 -960 Descending Oakland Center
08:52PM 35.7369 -120.7689 321° Northwest 421 484 34,900 -1,020 Descending Oakland Center
08:53PM 35.8292 -120.8592 322° Northwest 423 487 33,900 -1,020 Descending Oakland Center
08:54PM 35.9214 -120.9500 321° Northwest 425 489 32,900 -1,740 Descending Oakland Center
08:55PM 36.0147 -121.0400 322° Northwest 423 487 30,400 -2,460 Descending Oakland Center
08:56PM 36.1086 -121.1194 326° Northwest 408 470 28,000 -2,340 Descending Oakland Center
08:57PM 36.1978 -121.1958 325° Northwest 393 452 25,700 -2,220 Descending Oakland Center
08:58PM 36.2817 -121.2692 325° Northwest 373 429 23,500 -2,160 Descending Oakland Center
08:59PM 36.3633 -121.3408 325° Northwest 358 412 21,400 -2,520 Descending Oakland Center
09:00PM 36.4447 -121.4061 327° Northwest 349 402 18,400 -3,000 Descending Oakland Center
09:01PM 36.5608 -121.4508 343° North 359 413 15,400 -2,460 Descending Oakland Center
09:02PM 36.6517 -121.4908 341° North 345 397 13,400 -1,980 Descending Oakland Center
09:03PM 36.7383 -121.5269 342° North 328 377 11,400 -1,620 Descending Oakland Center
09:04PM 36.8189 -121.5639 340° North 312 359 10,200 -1,020 Descending Oakland Center
09:05PM 36.8825 -121.5908 341° North 280 322 9,400 -1,080 Descending Oakland Center
09:06PM 36.9500 -121.6214 340° North 265 305 8,100 -1,320 Descending Oakland Center
09:07PM 37.0164 -121.6494 341° North 255 293 6,800 -1,260 Descending Oakland Center
09:08PM 37.0967 -121.6839 341° North 254 292 5,600 -1,020 Descending Oakland Center
09:09PM 37.1333 -121.7000 341° North 242 278 5,400 -540 Descending Northern Cal TRACON
09:09PM 37.1589 -121.7089 345° North 244 281 5,100 -900 Descending Oakland Center
09:10PM 37.2053 -121.7561 321° Northwest 229 264 4,000 -1,200 Descending Oakland Center
09:11PM 37.2514 -121.8097 317° Northwest 226 260 2,800 -1,200 Descending Oakland Center
09:12PM 37.2956 -121.8564 320° Northwest 219 252 1,700 -960 Descending Oakland Center
09:13PM 37.3239 -121.8894 317° Northwest 168 193 900 -780 Descending Oakland Center
09:14PM 37.3519 -121.9192 320° Northwest 145 167 200 -720 Descending Oakland Center
09:16PM 37.3500 -121.9167 North  Level FlightAware Approximate
09:23PM 37.3627 -121.9291 North  Level Estimated